sensor_id;sensor_type;location;lat;lon;timestamp;pressure;altitude;pressure_sealevel;temperature
11792;BMP180;5953;52.372;9.918;2023-12-29T00:00:34;99953.00;;;14.70
11792;BMP180;5953;52.372;9.918;2023-12-29T00:03:02;99959.00;;;14.60
11792;BMP180;5953;52.372;9.918;2023-12-29T00:05:30;99956.00;;;14.10
11792;BMP180;5953;52.372;9.918;2023-12-29T00:07:58;99951.00;;;14.50
11792;BMP180;5953;52.372;9.918;2023-12-29T00:10:28;99934.00;;;14.00
11792;BMP180;5953;52.372;9.918;2023-12-29T00:12:56;99950.00;;;14.10
11792;BMP180;5953;52.372;9.918;2023-12-29T00:15:24;99949.00;;;13.90
11792;BMP180;5953;52.372;9.918;2023-12-29T00:17:52;99951.00;;;14.40
11792;BMP180;5953;52.372;9.918;2023-12-29T00:20:20;99944.00;;;14.60
11792;BMP180;5953;52.372;9.918;2023-12-29T00:23:03;99948.00;;;14.50
11792;BMP180;5953;52.372;9.918;2023-12-29T00:25:34;99930.00;;;14.00
11792;BMP180;5953;52.372;9.918;2023-12-29T00:28:03;99950.00;;;14.20
11792;BMP180;5953;52.372;9.918;2023-12-29T00:30:31;99950.00;;;14.50
11792;BMP180;5953;52.372;9.918;2023-12-29T00:33:19;99945.00;;;14.00
11792;BMP180;5953;52.372;9.918;2023-12-29T00:35:47;99916.00;;;14.60
11792;BMP180;5953;52.372;9.918;2023-12-29T00:38:15;99942.00;;;14.40
11792;BMP180;5953;52.372;9.918;2023-12-29T00:40:44;99933.00;;;14.40
11792;BMP180;5953;52.372;9.918;2023-12-29T00:43:12;99934.00;;;14.50
11792;BMP180;5953;52.372;9.918;2023-12-29T00:45:40;99923.00;;;14.60
11792;BMP180;5953;52.372;9.918;2023-12-29T00:48:08;99923.00;;;14.60
11792;BMP180;5953;52.372;9.918;2023-12-29T00:50:36;99920.00;;;14.30
11792;BMP180;5953;52.372;9.918;2023-12-29T00:53:04;99920.00;;;14.20
11792;BMP180;5953;52.372;9.918;2023-12-29T00:55:32;99920.00;;;14.10
11792;BMP180;5953;52.372;9.918;2023-12-29T00:58:02;99911.00;;;14.40
11792;BMP180;5953;52.372;9.918;2023-12-29T01:00:30;99904.00;;;14.30
11792;BMP180;5953;52.372;9.918;2023-12-29T01:02:58;99906.00;;;14.40
11792;BMP180;5953;52.372;9.918;2023-12-29T01:05:26;99904.00;;;14.20
11792;BMP180;5953;52.372;9.918;2023-12-29T01:07:54;99897.00;;;14.30
11792;BMP180;5953;52.372;9.918;2023-12-29T01:10:23;99896.00;;;14.50
11792;BMP180;5953;52.372;9.918;2023-12-29T01:12:51;99883.00;;;14.40
11792;BMP180;5953;52.372;9.918;2023-12-29T01:15:20;99899.00;;;14.30
11792;BMP180;5953;52.372;9.918;2023-12-29T01:17:48;99891.00;;;14.50
11792;BMP180;5953;52.372;9.918;2023-12-29T01:20:16;99892.00;;;14.70
11792;BMP180;5953;52.372;9.918;2023-12-29T01:22:44;99901.00;;;14.70
11792;BMP180;5953;52.372;9.918;2023-12-29T01:25:12;99892.00;;;14.30
11792;BMP180;5953;52.372;9.918;2023-12-29T01:27:40;99897.00;;;14.40
11792;BMP180;5953;52.372;9.918;2023-12-29T01:30:07;99891.00;;;14.30
11792;BMP180;5953;52.372;9.918;2023-12-29T01:32:37;99880.00;;;14.50
11792;BMP180;5953;52.372;9.918;2023-12-29T01:35:06;99886.00;;;14.40
11792;BMP180;5953;52.372;9.918;2023-12-29T01:37:34;99865.00;;;14.50
11792;BMP180;5953;52.372;9.918;2023-12-29T01:40:02;99897.00;;;14.50
11792;BMP180;5953;52.372;9.918;2023-12-29T01:42:30;99872.00;;;14.50
11792;BMP180;5953;52.372;9.918;2023-12-29T01:44:58;99893.00;;;14.40
11792;BMP180;5953;52.372;9.918;2023-12-29T01:47:26;99901.00;;;14.60
11792;BMP180;5953;52.372;9.918;2023-12-29T01:49:55;99886.00;;;14.20
11792;BMP180;5953;52.372;9.918;2023-12-29T01:52:23;99880.00;;;14.30
11792;BMP180;5953;52.372;9.918;2023-12-29T01:54:52;99895.00;;;14.30
11792;BMP180;5953;52.372;9.918;2023-12-29T01:57:21;99876.00;;;14.50
11792;BMP180;5953;52.372;9.918;2023-12-29T01:59:49;99868.00;;;13.80
11792;BMP180;5953;52.372;9.918;2023-12-29T02:02:17;99868.00;;;14.00
11792;BMP180;5953;52.372;9.918;2023-12-29T02:04:45;99873.00;;;14.00
11792;BMP180;5953;52.372;9.918;2023-12-29T02:07:15;99868.00;;;14.10
11792;BMP180;5953;52.372;9.918;2023-12-29T02:09:44;99865.00;;;13.60
11792;BMP180;5953;52.372;9.918;2023-12-29T02:12:12;99861.00;;;14.00
11792;BMP180;5953;52.372;9.918;2023-12-29T02:14:40;99859.00;;;14.00
11792;BMP180;5953;52.372;9.918;2023-12-29T02:17:10;99846.00;;;14.10
11792;BMP180;5953;52.372;9.918;2023-12-29T02:19:43;99851.00;;;14.30
11792;BMP180;5953;52.372;9.918;2023-12-29T02:22:13;99849.00;;;14.30
11792;BMP180;5953;52.372;9.918;2023-12-29T02:24:45;99846.00;;;14.30
11792;BMP180;5953;52.372;9.918;2023-12-29T02:27:21;99842.00;;;14.20
11792;BMP180;5953;52.372;9.918;2023-12-29T02:29:59;99825.00;;;14.40
11792;BMP180;5953;52.372;9.918;2023-12-29T02:32:32;99819.00;;;14.40
11792;BMP180;5953;52.372;9.918;2023-12-29T02:35:02;99830.00;;;14.20
11792;BMP180;5953;52.372;9.918;2023-12-29T02:37:36;99835.00;;;14.30
11792;BMP180;5953;52.372;9.918;2023-12-29T02:40:07;99827.00;;;13.90
11792;BMP180;5953;52.372;9.918;2023-12-29T02:42:36;99836.00;;;14.20
11792;BMP180;5953;52.372;9.918;2023-12-29T02:45:04;99796.00;;;14.40
11792;BMP180;5953;52.372;9.918;2023-12-29T02:47:32;99813.00;;;14.50
11792;BMP180;5953;52.372;9.918;2023-12-29T02:50:00;99817.00;;;13.70
11792;BMP180;5953;52.372;9.918;2023-12-29T02:52:28;99820.00;;;14.30
11792;BMP180;5953;52.372;9.918;2023-12-29T02:54:56;99802.00;;;14.50
11792;BMP180;5953;52.372;9.918;2023-12-29T02:57:25;99795.00;;;14.20
11792;BMP180;5953;52.372;9.918;2023-12-29T02:59:53;99785.00;;;14.60
11792;BMP180;5953;52.372;9.918;2023-12-29T03:02:21;99809.00;;;14.40
11792;BMP180;5953;52.372;9.918;2023-12-29T03:04:49;99797.00;;;14.70
11792;BMP180;5953;52.372;9.918;2023-12-29T03:07:17;99800.00;;;14.50
11792;BMP180;5953;52.372;9.918;2023-12-29T03:09:45;99796.00;;;14.30
11792;BMP180;5953;52.372;9.918;2023-12-29T03:12:12;99795.00;;;14.60
11792;BMP180;5953;52.372;9.918;2023-12-29T03:14:42;99796.00;;;14.50
11792;BMP180;5953;52.372;9.918;2023-12-29T03:17:11;99792.00;;;14.10
11792;BMP180;5953;52.372;9.918;2023-12-29T03:19:39;99788.00;;;13.90
11792;BMP180;5953;52.372;9.918;2023-12-29T03:22:07;99787.00;;;14.30
11792;BMP180;5953;52.372;9.918;2023-12-29T03:24:35;99788.00;;;14.30
11792;BMP180;5953;52.372;9.918;2023-12-29T03:27:03;99787.00;;;14.10
11792;BMP180;5953;52.372;9.918;2023-12-29T03:29:31;99769.00;;;14.10
11792;BMP180;5953;52.372;9.918;2023-12-29T03:32:00;99764.00;;;14.10
11792;BMP180;5953;52.372;9.918;2023-12-29T03:34:28;99759.00;;;14.40
11792;BMP180;5953;52.372;9.918;2023-12-29T03:36:56;99754.00;;;14.20
11792;BMP180;5953;52.372;9.918;2023-12-29T03:39:24;99758.00;;;14.50
11792;BMP180;5953;52.372;9.918;2023-12-29T03:41:51;99761.00;;;14.00
11792;BMP180;5953;52.372;9.918;2023-12-29T03:44:19;99769.00;;;14.20
11792;BMP180;5953;52.372;9.918;2023-12-29T03:46:47;99764.00;;;14.60
11792;BMP180;5953;52.372;9.918;2023-12-29T03:49:17;99751.00;;;14.70
11792;BMP180;5953;52.372;9.918;2023-12-29T03:51:46;99767.00;;;14.50
11792;BMP180;5953;52.372;9.918;2023-12-29T03:54:14;99770.00;;;14.80
11792;BMP180;5953;52.372;9.918;2023-12-29T03:56:43;99776.00;;;14.00
11792;BMP180;5953;52.372;9.918;2023-12-29T03:59:11;99769.00;;;14.50
11792;BMP180;5953;52.372;9.918;2023-12-29T04:01:39;99760.00;;;14.40
11792;BMP180;5953;52.372;9.918;2023-12-29T04:04:07;99746.00;;;14.00
11792;BMP180;5953;52.372;9.918;2023-12-29T04:06:36;99743.00;;;14.60
11792;BMP180;5953;52.372;9.918;2023-12-29T04:09:04;99730.00;;;14.30
11792;BMP180;5953;52.372;9.918;2023-12-29T04:11:33;99759.00;;;14.00
11792;BMP180;5953;52.372;9.918;2023-12-29T04:14:01;99782.00;;;13.30
11792;BMP180;5953;52.372;9.918;2023-12-29T04:16:29;99731.00;;;13.80
11792;BMP180;5953;52.372;9.918;2023-12-29T04:18:57;99725.00;;;13.80
11792;BMP180;5953;52.372;9.918;2023-12-29T04:21:25;99714.00;;;13.90
11792;BMP180;5953;52.372;9.918;2023-12-29T04:23:54;99723.00;;;13.80
11792;BMP180;5953;52.372;9.918;2023-12-29T04:26:22;99741.00;;;13.40
11792;BMP180;5953;52.372;9.918;2023-12-29T04:28:50;99746.00;;;13.70
11792;BMP180;5953;52.372;9.918;2023-12-29T04:31:18;99741.00;;;13.90
11792;BMP180;5953;52.372;9.918;2023-12-29T04:33:46;99762.00;;;13.50
11792;BMP180;5953;52.372;9.918;2023-12-29T04:36:14;99769.00;;;13.60
11792;BMP180;5953;52.372;9.918;2023-12-29T04:38:42;99750.00;;;13.30
11792;BMP180;5953;52.372;9.918;2023-12-29T04:41:13;99746.00;;;14.00
11792;BMP180;5953;52.372;9.918;2023-12-29T04:43:41;99745.00;;;13.50
11792;BMP180;5953;52.372;9.918;2023-12-29T04:46:09;99759.00;;;13.40
11792;BMP180;5953;52.372;9.918;2023-12-29T04:48:37;99736.00;;;13.90
11792;BMP180;5953;52.372;9.918;2023-12-29T04:51:05;99746.00;;;13.90
11792;BMP180;5953;52.372;9.918;2023-12-29T04:53:33;99757.00;;;14.00
11792;BMP180;5953;52.372;9.918;2023-12-29T04:56:01;99741.00;;;14.00
11792;BMP180;5953;52.372;9.918;2023-12-29T04:58:30;99751.00;;;14.10
11792;BMP180;5953;52.372;9.918;2023-12-29T05:00:58;99751.00;;;13.40
11792;BMP180;5953;52.372;9.918;2023-12-29T05:03:27;99754.00;;;14.00
11792;BMP180;5953;52.372;9.918;2023-12-29T05:05:55;99740.00;;;13.30
11792;BMP180;5953;52.372;9.918;2023-12-29T05:08:23;99749.00;;;13.70
11792;BMP180;5953;52.372;9.918;2023-12-29T05:10:51;99763.00;;;13.90
11792;BMP180;5953;52.372;9.918;2023-12-29T05:13:19;99747.00;;;14.10
11792;BMP180;5953;52.372;9.918;2023-12-29T05:15:48;99767.00;;;14.00
11792;BMP180;5953;52.372;9.918;2023-12-29T05:18:16;99784.00;;;13.80
11792;BMP180;5953;52.372;9.918;2023-12-29T05:20:44;99761.00;;;13.60
11792;BMP180;5953;52.372;9.918;2023-12-29T05:23:12;99785.00;;;13.80
11792;BMP180;5953;52.372;9.918;2023-12-29T05:25:40;99775.00;;;13.60
11792;BMP180;5953;52.372;9.918;2023-12-29T05:28:08;99781.00;;;13.20
11792;BMP180;5953;52.372;9.918;2023-12-29T05:30:36;99748.00;;;13.60
11792;BMP180;5953;52.372;9.918;2023-12-29T05:33:05;99762.00;;;13.60
11792;BMP180;5953;52.372;9.918;2023-12-29T05:35:33;99777.00;;;13.40
11792;BMP180;5953;52.372;9.918;2023-12-29T05:38:01;99771.00;;;13.40
11792;BMP180;5953;52.372;9.918;2023-12-29T05:40:29;99768.00;;;13.30
11792;BMP180;5953;52.372;9.918;2023-12-29T05:42:57;99768.00;;;13.60
11792;BMP180;5953;52.372;9.918;2023-12-29T05:45:25;99781.00;;;13.40
11792;BMP180;5953;52.372;9.918;2023-12-29T05:47:53;99764.00;;;13.80
11792;BMP180;5953;52.372;9.918;2023-12-29T05:50:23;99752.00;;;13.80
11792;BMP180;5953;52.372;9.918;2023-12-29T05:52:51;99756.00;;;13.60
11792;BMP180;5953;52.372;9.918;2023-12-29T05:55:19;99761.00;;;13.50
11792;BMP180;5953;52.372;9.918;2023-12-29T05:57:47;99749.00;;;13.60
11792;BMP180;5953;52.372;9.918;2023-12-29T06:00:15;99756.00;;;13.70
11792;BMP180;5953;52.372;9.918;2023-12-29T06:02:43;99752.00;;;13.80
11792;BMP180;5953;52.372;9.918;2023-12-29T06:05:11;99750.00;;;13.70
11792;BMP180;5953;52.372;9.918;2023-12-29T06:07:41;99760.00;;;13.70
11792;BMP180;5953;52.372;9.918;2023-12-29T06:10:09;99758.00;;;13.80
11792;BMP180;5953;52.372;9.918;2023-12-29T06:12:37;99759.00;;;13.40
11792;BMP180;5953;52.372;9.918;2023-12-29T06:15:06;99762.00;;;13.50
11792;BMP180;5953;52.372;9.918;2023-12-29T06:17:34;99749.00;;;13.60
11792;BMP180;5953;52.372;9.918;2023-12-29T06:20:04;99758.00;;;13.90
11792;BMP180;5953;52.372;9.918;2023-12-29T06:22:32;99768.00;;;13.50
11792;BMP180;5953;52.372;9.918;2023-12-29T06:25:02;99778.00;;;13.50
11792;BMP180;5953;52.372;9.918;2023-12-29T06:27:30;99764.00;;;13.90
11792;BMP180;5953;52.372;9.918;2023-12-29T06:30:01;99775.00;;;13.60
11792;BMP180;5953;52.372;9.918;2023-12-29T06:32:31;99776.00;;;13.80
11792;BMP180;5953;52.372;9.918;2023-12-29T06:34:59;99782.00;;;13.50
11792;BMP180;5953;52.372;9.918;2023-12-29T06:37:27;99775.00;;;13.90
11792;BMP180;5953;52.372;9.918;2023-12-29T06:39:55;99775.00;;;13.60
11792;BMP180;5953;52.372;9.918;2023-12-29T06:42:24;99770.00;;;13.60
11792;BMP180;5953;52.372;9.918;2023-12-29T06:44:52;99768.00;;;13.80
11792;BMP180;5953;52.372;9.918;2023-12-29T06:47:20;99773.00;;;13.80
11792;BMP180;5953;52.372;9.918;2023-12-29T06:49:48;99772.00;;;13.70
11792;BMP180;5953;52.372;9.918;2023-12-29T06:52:16;99770.00;;;13.80
11792;BMP180;5953;52.372;9.918;2023-12-29T06:54:44;99771.00;;;13.60
11792;BMP180;5953;52.372;9.918;2023-12-29T06:57:12;99761.00;;;13.50
11792;BMP180;5953;52.372;9.918;2023-12-29T06:59:42;99751.00;;;13.70
11792;BMP180;5953;52.372;9.918;2023-12-29T07:02:10;99765.00;;;13.80
11792;BMP180;5953;52.372;9.918;2023-12-29T07:04:41;99769.00;;;13.60
11792;BMP180;5953;52.372;9.918;2023-12-29T07:07:09;99740.00;;;14.00
11792;BMP180;5953;52.372;9.918;2023-12-29T07:09:38;99775.00;;;14.00
11792;BMP180;5953;52.372;9.918;2023-12-29T07:12:07;99770.00;;;14.00
11792;BMP180;5953;52.372;9.918;2023-12-29T07:14:36;99779.00;;;13.70
11792;BMP180;5953;52.372;9.918;2023-12-29T07:17:06;99775.00;;;13.90
11792;BMP180;5953;52.372;9.918;2023-12-29T07:19:35;99780.00;;;14.10
11792;BMP180;5953;52.372;9.918;2023-12-29T07:22:05;99800.00;;;14.30
11792;BMP180;5953;52.372;9.918;2023-12-29T07:24:35;99799.00;;;13.80
11792;BMP180;5953;52.372;9.918;2023-12-29T07:27:04;99763.00;;;13.90
11792;BMP180;5953;52.372;9.918;2023-12-29T07:29:33;99763.00;;;14.20
11792;BMP180;5953;52.372;9.918;2023-12-29T07:32:01;99779.00;;;13.70
11792;BMP180;5953;52.372;9.918;2023-12-29T07:34:30;99792.00;;;14.10
11792;BMP180;5953;52.372;9.918;2023-12-29T07:36:59;99790.00;;;14.10
11792;BMP180;5953;52.372;9.918;2023-12-29T07:39:27;99782.00;;;14.20
11792;BMP180;5953;52.372;9.918;2023-12-29T07:41:55;99784.00;;;13.70
11792;BMP180;5953;52.372;9.918;2023-12-29T07:44:23;99779.00;;;14.00
11792;BMP180;5953;52.372;9.918;2023-12-29T07:46:51;99787.00;;;13.80
11792;BMP180;5953;52.372;9.918;2023-12-29T07:49:19;99798.00;;;13.90
11792;BMP180;5953;52.372;9.918;2023-12-29T07:51:50;99810.00;;;13.90
11792;BMP180;5953;52.372;9.918;2023-12-29T07:54:18;99803.00;;;13.80
11792;BMP180;5953;52.372;9.918;2023-12-29T07:56:46;99826.00;;;14.00
11792;BMP180;5953;52.372;9.918;2023-12-29T07:59:14;99810.00;;;14.20
11792;BMP180;5953;52.372;9.918;2023-12-29T08:01:41;99811.00;;;14.10
11792;BMP180;5953;52.372;9.918;2023-12-29T08:04:09;99820.00;;;14.10
11792;BMP180;5953;52.372;9.918;2023-12-29T08:06:41;99775.00;;;14.00
11792;BMP180;5953;52.372;9.918;2023-12-29T08:09:11;99820.00;;;13.80
11792;BMP180;5953;52.372;9.918;2023-12-29T08:11:42;99826.00;;;13.70
11792;BMP180;5953;52.372;9.918;2023-12-29T08:14:11;99827.00;;;13.70
11792;BMP180;5953;52.372;9.918;2023-12-29T08:16:41;99806.00;;;14.00
11792;BMP180;5953;52.372;9.918;2023-12-29T08:19:09;99821.00;;;14.00
11792;BMP180;5953;52.372;9.918;2023-12-29T08:21:37;99817.00;;;14.30
11792;BMP180;5953;52.372;9.918;2023-12-29T08:24:05;99818.00;;;14.30
11792;BMP180;5953;52.372;9.918;2023-12-29T08:26:43;99824.00;;;14.30
11792;BMP180;5953;52.372;9.918;2023-12-29T08:29:11;99812.00;;;14.20
11792;BMP180;5953;52.372;9.918;2023-12-29T08:31:39;99831.00;;;14.30
11792;BMP180;5953;52.372;9.918;2023-12-29T08:34:09;99823.00;;;14.40
11792;BMP180;5953;52.372;9.918;2023-12-29T08:36:38;99838.00;;;14.40
11792;BMP180;5953;52.372;9.918;2023-12-29T08:39:09;99834.00;;;14.40
11792;BMP180;5953;52.372;9.918;2023-12-29T08:41:40;99834.00;;;14.30
11792;BMP180;5953;52.372;9.918;2023-12-29T08:44:08;99842.00;;;14.30
11792;BMP180;5953;52.372;9.918;2023-12-29T08:46:36;99830.00;;;14.50
11792;BMP180;5953;52.372;9.918;2023-12-29T08:49:08;99836.00;;;14.50
11792;BMP180;5953;52.372;9.918;2023-12-29T08:51:39;99803.00;;;14.60
11792;BMP180;5953;52.372;9.918;2023-12-29T08:54:07;99822.00;;;14.40
11792;BMP180;5953;52.372;9.918;2023-12-29T08:56:35;99804.00;;;14.40
11792;BMP180;5953;52.372;9.918;2023-12-29T08:59:04;99810.00;;;14.50
11792;BMP180;5953;52.372;9.918;2023-12-29T09:01:32;99807.00;;;14.10
11792;BMP180;5953;52.372;9.918;2023-12-29T09:04:01;99784.00;;;14.00
11792;BMP180;5953;52.372;9.918;2023-12-29T09:06:29;99809.00;;;14.40
11792;BMP180;5953;52.372;9.918;2023-12-29T09:08:57;99794.00;;;14.00
11792;BMP180;5953;52.372;9.918;2023-12-29T09:11:25;99808.00;;;14.60
11792;BMP180;5953;52.372;9.918;2023-12-29T09:13:53;99801.00;;;14.50
11792;BMP180;5953;52.372;9.918;2023-12-29T09:16:22;99811.00;;;14.30
11792;BMP180;5953;52.372;9.918;2023-12-29T09:18:50;99804.00;;;14.30
11792;BMP180;5953;52.372;9.918;2023-12-29T09:21:18;99801.00;;;14.40
11792;BMP180;5953;52.372;9.918;2023-12-29T09:23:46;99811.00;;;14.70
11792;BMP180;5953;52.372;9.918;2023-12-29T09:26:17;99791.00;;;14.50
11792;BMP180;5953;52.372;9.918;2023-12-29T09:28:45;99821.00;;;14.50
11792;BMP180;5953;52.372;9.918;2023-12-29T09:31:13;99826.00;;;14.30
11792;BMP180;5953;52.372;9.918;2023-12-29T09:33:43;99820.00;;;14.50
11792;BMP180;5953;52.372;9.918;2023-12-29T09:36:11;99823.00;;;14.40
11792;BMP180;5953;52.372;9.918;2023-12-29T09:38:42;99806.00;;;14.50
11792;BMP180;5953;52.372;9.918;2023-12-29T09:41:14;99826.00;;;14.30
11792;BMP180;5953;52.372;9.918;2023-12-29T09:43:43;99826.00;;;14.70
11792;BMP180;5953;52.372;9.918;2023-12-29T09:46:14;99825.00;;;14.50
11792;BMP180;5953;52.372;9.918;2023-12-29T09:48:47;99838.00;;;14.30
11792;BMP180;5953;52.372;9.918;2023-12-29T09:51:16;99839.00;;;14.20
11792;BMP180;5953;52.372;9.918;2023-12-29T09:53:49;99856.00;;;13.80
11792;BMP180;5953;52.372;9.918;2023-12-29T09:56:19;99836.00;;;14.10
11792;BMP180;5953;52.372;9.918;2023-12-29T09:58:47;99854.00;;;13.80
11792;BMP180;5953;52.372;9.918;2023-12-29T10:01:17;99846.00;;;14.20
11792;BMP180;5953;52.372;9.918;2023-12-29T10:03:48;99852.00;;;14.30
11792;BMP180;5953;52.372;9.918;2023-12-29T10:06:20;99873.00;;;13.90
11792;BMP180;5953;52.372;9.918;2023-12-29T10:08:50;99858.00;;;13.70
11792;BMP180;5953;52.372;9.918;2023-12-29T10:11:21;99856.00;;;13.80
11792;BMP180;5953;52.372;9.918;2023-12-29T10:13:50;99842.00;;;13.50
11792;BMP180;5953;52.372;9.918;2023-12-29T10:16:24;99838.00;;;13.60
11792;BMP180;5953;52.372;9.918;2023-12-29T10:19:02;99835.00;;;13.70
11792;BMP180;5953;52.372;9.918;2023-12-29T10:21:37;99819.00;;;13.60
11792;BMP180;5953;52.372;9.918;2023-12-29T10:24:13;99827.00;;;13.60
11792;BMP180;5953;52.372;9.918;2023-12-29T10:26:42;99832.00;;;13.60
11792;BMP180;5953;52.372;9.918;2023-12-29T10:29:12;99813.00;;;13.40
11792;BMP180;5953;52.372;9.918;2023-12-29T10:31:43;99830.00;;;13.10
11792;BMP180;5953;52.372;9.918;2023-12-29T10:34:19;99819.00;;;13.30
11792;BMP180;5953;52.372;9.918;2023-12-29T10:36:48;99823.00;;;13.20
11792;BMP180;5953;52.372;9.918;2023-12-29T10:39:16;99844.00;;;13.30
11792;BMP180;5953;52.372;9.918;2023-12-29T10:41:44;99855.00;;;13.60
11792;BMP180;5953;52.372;9.918;2023-12-29T10:44:12;99836.00;;;13.30
11792;BMP180;5953;52.372;9.918;2023-12-29T10:46:40;99837.00;;;13.50
11792;BMP180;5953;52.372;9.918;2023-12-29T10:49:08;99821.00;;;13.60
11792;BMP180;5953;52.372;9.918;2023-12-29T10:51:38;99830.00;;;13.60
11792;BMP180;5953;52.372;9.918;2023-12-29T10:54:07;99830.00;;;13.50
11792;BMP180;5953;52.372;9.918;2023-12-29T10:56:35;99820.00;;;13.10
11792;BMP180;5953;52.372;9.918;2023-12-29T10:59:05;99826.00;;;13.50
11792;BMP180;5953;52.372;9.918;2023-12-29T11:01:35;99807.00;;;13.40
11792;BMP180;5953;52.372;9.918;2023-12-29T11:04:04;99817.00;;;13.40
11792;BMP180;5953;52.372;9.918;2023-12-29T11:06:41;99796.00;;;13.50
11792;BMP180;5953;52.372;9.918;2023-12-29T11:09:11;99792.00;;;13.30
11792;BMP180;5953;52.372;9.918;2023-12-29T11:11:43;99797.00;;;13.50
11792;BMP180;5953;52.372;9.918;2023-12-29T11:14:11;99792.00;;;13.20
11792;BMP180;5953;52.372;9.918;2023-12-29T11:16:41;99775.00;;;13.50
11792;BMP180;5953;52.372;9.918;2023-12-29T11:19:12;99777.00;;;13.20
11792;BMP180;5953;52.372;9.918;2023-12-29T11:21:43;99773.00;;;13.40
11792;BMP180;5953;52.372;9.918;2023-12-29T11:24:12;99754.00;;;13.10
11792;BMP180;5953;52.372;9.918;2023-12-29T11:26:49;99757.00;;;13.20
11792;BMP180;5953;52.372;9.918;2023-12-29T11:29:17;99769.00;;;13.30
11792;BMP180;5953;52.372;9.918;2023-12-29T11:31:47;99755.00;;;13.50
11792;BMP180;5953;52.372;9.918;2023-12-29T11:34:20;99779.00;;;13.80
11792;BMP180;5953;52.372;9.918;2023-12-29T11:37:11;99764.00;;;13.70
11792;BMP180;5953;52.372;9.918;2023-12-29T11:39:50;99755.00;;;13.80
11792;BMP180;5953;52.372;9.918;2023-12-29T11:42:23;99739.00;;;13.90
11792;BMP180;5953;52.372;9.918;2023-12-29T11:44:53;99757.00;;;13.70
11792;BMP180;5953;52.372;9.918;2023-12-29T11:47:36;99754.00;;;13.70
11792;BMP180;5953;52.372;9.918;2023-12-29T11:50:05;99763.00;;;13.90
11792;BMP180;5953;52.372;9.918;2023-12-29T11:52:35;99751.00;;;13.70
11792;BMP180;5953;52.372;9.918;2023-12-29T11:55:09;99766.00;;;14.20
11792;BMP180;5953;52.372;9.918;2023-12-29T11:57:38;99748.00;;;14.30
11792;BMP180;5953;52.372;9.918;2023-12-29T12:00:08;99754.00;;;13.90
11792;BMP180;5953;52.372;9.918;2023-12-29T12:02:36;99749.00;;;13.90
11792;BMP180;5953;52.372;9.918;2023-12-29T12:05:05;99770.00;;;13.70
11792;BMP180;5953;52.372;9.918;2023-12-29T12:08:03;99753.00;;;14.00
11792;BMP180;5953;52.372;9.918;2023-12-29T12:10:31;99750.00;;;13.90
11792;BMP180;5953;52.372;9.918;2023-12-29T12:13:00;99745.00;;;14.00
11792;BMP180;5953;52.372;9.918;2023-12-29T12:15:32;99729.00;;;14.20
11792;BMP180;5953;52.372;9.918;2023-12-29T12:18:01;99746.00;;;14.60
11792;BMP180;5953;52.372;9.918;2023-12-29T12:20:34;99755.00;;;14.20
11792;BMP180;5953;52.372;9.918;2023-12-29T12:23:10;99772.00;;;14.10
11792;BMP180;5953;52.372;9.918;2023-12-29T12:25:39;99738.00;;;14.00
11792;BMP180;5953;52.372;9.918;2023-12-29T12:28:09;99747.00;;;14.00
11792;BMP180;5953;52.372;9.918;2023-12-29T12:30:37;99747.00;;;14.10
11792;BMP180;5953;52.372;9.918;2023-12-29T12:33:05;99748.00;;;14.20
11792;BMP180;5953;52.372;9.918;2023-12-29T12:35:33;99743.00;;;14.20
11792;BMP180;5953;52.372;9.918;2023-12-29T12:40:37;99766.00;;;14.30
11792;BMP180;5953;52.372;9.918;2023-12-29T12:43:06;99778.00;;;14.20
11792;BMP180;5953;52.372;9.918;2023-12-29T12:45:35;99758.00;;;14.30
11792;BMP180;5953;52.372;9.918;2023-12-29T12:48:13;99765.00;;;14.10
11792;BMP180;5953;52.372;9.918;2023-12-29T12:50:43;99760.00;;;14.00
11792;BMP180;5953;52.372;9.918;2023-12-29T12:53:13;99757.00;;;14.00
11792;BMP180;5953;52.372;9.918;2023-12-29T12:55:47;99754.00;;;13.70
11792;BMP180;5953;52.372;9.918;2023-12-29T12:58:16;99750.00;;;13.90
11792;BMP180;5953;52.372;9.918;2023-12-29T13:00:45;99756.00;;;14.00
11792;BMP180;5953;52.372;9.918;2023-12-29T13:03:18;99773.00;;;14.20
11792;BMP180;5953;52.372;9.918;2023-12-29T13:05:46;99760.00;;;14.40
11792;BMP180;5953;52.372;9.918;2023-12-29T13:08:16;99752.00;;;14.40
11792;BMP180;5953;52.372;9.918;2023-12-29T13:11:00;99765.00;;;14.40
11792;BMP180;5953;52.372;9.918;2023-12-29T13:13:38;99763.00;;;14.00
11792;BMP180;5953;52.372;9.918;2023-12-29T13:16:06;99748.00;;;14.40
11792;BMP180;5953;52.372;9.918;2023-12-29T13:18:35;99761.00;;;14.40
11792;BMP180;5953;52.372;9.918;2023-12-29T13:21:03;99743.00;;;14.10
11792;BMP180;5953;52.372;9.918;2023-12-29T13:23:33;99754.00;;;14.20
11792;BMP180;5953;52.372;9.918;2023-12-29T13:26:05;99761.00;;;14.50
11792;BMP180;5953;52.372;9.918;2023-12-29T13:28:34;99739.00;;;14.50
11792;BMP180;5953;52.372;9.918;2023-12-29T13:31:05;99754.00;;;14.50
11792;BMP180;5953;52.372;9.918;2023-12-29T13:33:44;99758.00;;;14.50
11792;BMP180;5953;52.372;9.918;2023-12-29T13:36:22;99770.00;;;14.50
11792;BMP180;5953;52.372;9.918;2023-12-29T13:38:55;99763.00;;;14.20
11792;BMP180;5953;52.372;9.918;2023-12-29T13:41:25;99749.00;;;14.50
11792;BMP180;5953;52.372;9.918;2023-12-29T13:43:55;99749.00;;;14.40
11792;BMP180;5953;52.372;9.918;2023-12-29T13:46:23;99752.00;;;14.30
11792;BMP180;5953;52.372;9.918;2023-12-29T13:48:52;99745.00;;;14.40
11792;BMP180;5953;52.372;9.918;2023-12-29T13:51:23;99751.00;;;14.70
11792;BMP180;5953;52.372;9.918;2023-12-29T13:53:59;99726.00;;;14.50
11792;BMP180;5953;52.372;9.918;2023-12-29T13:56:27;99730.00;;;14.30
11792;BMP180;5953;52.372;9.918;2023-12-29T13:58:55;99730.00;;;14.50
11792;BMP180;5953;52.372;9.918;2023-12-29T14:01:23;99723.00;;;14.40
11792;BMP180;5953;52.372;9.918;2023-12-29T14:03:55;99729.00;;;14.50
11792;BMP180;5953;52.372;9.918;2023-12-29T14:06:28;99735.00;;;14.40
11792;BMP180;5953;52.372;9.918;2023-12-29T14:08:58;99731.00;;;14.70
11792;BMP180;5953;52.372;9.918;2023-12-29T14:11:26;99729.00;;;14.20
11792;BMP180;5953;52.372;9.918;2023-12-29T14:13:54;99736.00;;;14.40
11792;BMP180;5953;52.372;9.918;2023-12-29T14:16:22;99738.00;;;14.40
11792;BMP180;5953;52.372;9.918;2023-12-29T14:18:54;99745.00;;;13.80
11792;BMP180;5953;52.372;9.918;2023-12-29T14:21:26;99725.00;;;14.00
11792;BMP180;5953;52.372;9.918;2023-12-29T14:24:08;99739.00;;;13.90
11792;BMP180;5953;52.372;9.918;2023-12-29T14:26:37;99740.00;;;14.50
11792;BMP180;5953;52.372;9.918;2023-12-29T14:29:08;99742.00;;;14.40
11792;BMP180;5953;52.372;9.918;2023-12-29T14:31:38;99724.00;;;14.50
11792;BMP180;5953;52.372;9.918;2023-12-29T14:34:06;99741.00;;;14.40
11792;BMP180;5953;52.372;9.918;2023-12-29T14:36:36;99745.00;;;14.40